Time;durP1;ratioP1;P1;durP2;ratioP2;P2;SDS_P1;SDS_P2;PMS_P1;PMS_P2;Temp;Humidity;BMP_temperature;BMP_pressure;BME280_temperature;BME280_humidity;BME280_pressure;Samples;Min_cycle;Max_cycle;Signal;HPM_P1;HPM_P2
2023/08/12 00:02:31;;;;;;;;;;;22.10;47.30;;;21.12;47.12;101603.50;12255993;19;19919;-87
2023/08/12 00:06:33;;;;;;;;;;;22.00;47.30;;;21.23;47.29;101615.88;12252879;19;20258;-87
2023/08/12 00:10:34;;;;;;;;;;;22.00;47.40;;;21.19;47.22;101611.78;12257634;19;19919;-86
2023/08/12 00:14:36;;;;;;;;;;;22.00;47.50;;;21.27;47.24;101638.53;12256674;19;19918;-87
2023/08/12 00:18:37;;;;;;;;;;;21.90;47.40;;;21.18;47.50;101621.56;12247816;19;19923;-87
2023/08/12 00:22:40;;;;;;;;;;;21.90;47.50;;;21.21;47.08;101645.22;12249832;19;19919;-87
2023/08/12 00:26:41;;;;;;;;;;;21.90;47.50;;;21.13;47.46;101634.41;12252180;19;19914;-87
2023/08/12 00:30:43;;;;;;;;;;;21.90;47.60;;;21.14;47.76;101625.47;12254309;19;19993;-87
2023/08/12 00:34:44;;;;;;;;;;;21.90;47.60;;;20.89;47.39;101586.03;12254803;19;20252;-87
2023/08/12 00:38:46;;;;;;;;;;;21.80;47.60;;;21.14;47.56;101630.78;12249804;19;19940;-87
2023/08/12 00:42:47;;;;;;;;;;;21.80;47.50;;;21.08;47.62;101630.47;12252289;19;19923;-87
2023/08/12 00:46:49;;;;;;;;;;;21.80;47.60;;;20.91;47.54;101605.34;12248528;19;19915;-87
2023/08/12 00:50:52;;;;;;;;;;;21.70;47.50;;;20.99;47.74;101621.47;12253060;19;19922;-86
2023/08/12 00:54:53;;;;;;;;;;;21.70;47.60;;;20.95;47.61;101620.03;12253130;19;20000;-87
2023/08/12 00:58:56;;;;;;;;;;;21.70;47.60;;;20.91;47.48;101608.84;12252403;19;19932;-86
2023/08/12 01:02:57;;;;;;;;;;;21.60;47.50;;;20.82;47.70;101599.00;12251551;19;19918;-87
2023/08/12 01:06:59;;;;;;;;;;;21.60;47.60;;;20.76;47.53;101594.19;12250096;19;19922;-86
2023/08/12 01:11:42;;;;;;;;;;;21.60;47.70;;;20.78;47.99;101598.41;12249941;19;20542;-87
2023/08/12 01:15:44;;;;;;;;;;;21.50;47.60;;;20.73;47.84;101591.81;12246241;19;19930;-87
2023/08/12 01:19:46;;;;;;;;;;;21.50;47.80;;;20.74;47.75;101597.00;12249331;19;19918;-86
2023/08/12 01:23:48;;;;;;;;;;;21.40;47.80;;;20.72;47.71;101583.00;12248166;19;19922;-87
2023/08/12 01:27:50;;;;;;;;;;;21.40;48.00;;;20.54;47.93;101556.19;12247444;19;19939;-87
2023/08/12 01:32:13;;;;;;;;;;;21.40;47.90;;;20.61;47.75;101566.31;12249441;19;20322;-87
2023/08/12 01:36:20;;;;;;;;;;;21.40;48.00;;;20.67;47.65;101579.91;12248473;19;19921;-87
2023/08/12 01:40:22;;;;;;;;;;;21.40;48.00;;;20.62;48.07;101571.47;12248143;19;20004;-87
2023/08/12 01:44:23;;;;;;;;;;;21.30;47.90;;;20.34;47.87;101538.44;12246637;19;19925;-87
2023/08/12 01:48:25;;;;;;;;;;;21.30;47.90;;;20.47;47.99;101557.66;12245223;19;19939;-87
2023/08/12 01:52:27;;;;;;;;;;;21.30;48.00;;;20.26;48.27;101525.81;12248407;19;19918;-87
2023/08/12 01:56:29;;;;;;;;;;;21.30;48.00;;;20.44;48.10;101546.44;12242511;19;19922;-86
2023/08/12 02:00:31;;;;;;;;;;;21.20;48.40;;;20.51;47.89;101560.91;12248448;19;20282;-87
2023/08/12 02:04:33;;;;;;;;;;;21.20;48.00;;;20.49;48.20;101562.81;12247026;19;19932;-87
2023/08/12 02:08:35;;;;;;;;;;;21.20;48.00;;;20.30;48.21;101529.03;12243340;19;19919;-87
2023/08/12 02:12:36;;;;;;;;;;;21.20;48.10;;;20.37;48.33;101542.66;12248425;19;19923;-87
2023/08/12 02:16:38;;;;;;;;;;;21.20;48.10;;;20.39;48.05;101545.97;12248395;19;20318;-86
2023/08/12 02:20:41;;;;;;;;;;;21.20;48.10;;;20.38;48.50;101544.31;12247851;19;19927;-87
2023/08/12 02:24:42;;;;;;;;;;;21.10;48.00;;;20.33;48.34;101550.88;12244055;19;20280;-86
2023/08/12 02:28:44;;;;;;;;;;;21.10;48.10;;;20.24;48.07;101529.56;12240755;19;19969;-86
2023/08/12 02:32:46;;;;;;;;;;;21.00;48.00;;;19.87;48.28;101476.91;12245072;19;19915;-86
2023/08/12 02:36:47;;;;;;;;;;;21.00;48.00;;;20.05;48.55;101509.03;12246776;19;19919;-86
2023/08/12 02:40:49;;;;;;;;;;;20.90;48.20;;;19.97;48.17;101499.06;12247111;19;20336;-86
2023/08/12 02:44:51;;;;;;;;;;;20.90;48.10;;;19.96;48.44;101507.97;12244005;19;19933;-86
2023/08/12 02:48:52;;;;;;;;;;;20.80;48.10;;;19.73;48.33;101474.56;12242608;19;20268;-86
2023/08/12 02:52:54;;;;;;;;;;;20.80;48.40;;;19.88;48.67;101492.72;12245062;19;19986;-87
2023/08/12 02:56:55;;;;;;;;;;;20.80;48.40;;;19.87;48.79;101493.69;12241805;19;20397;-87
2023/08/12 03:00:57;;;;;;;;;;;20.70;48.40;;;19.97;48.72;101506.16;12244237;19;20396;-87
2023/08/12 03:04:58;;;;;;;;;;;20.70;48.50;;;19.96;48.66;101502.69;12243485;19;19936;-86
2023/08/12 03:09:00;;;;;;;;;;;20.70;48.60;;;19.93;48.71;101496.78;12245549;19;19907;-87
2023/08/12 03:13:01;;;;;;;;;;;20.70;48.60;;;19.96;48.84;101502.69;12243585;19;19981;-87
2023/08/12 03:17:03;;;;;;;;;;;20.70;48.60;;;19.94;48.78;101487.88;12242830;19;19924;-86
2023/08/12 03:21:10;;;;;;;;;;;20.70;48.80;;;19.84;48.86;101477.16;12244285;19;20251;-86
2023/08/12 03:25:14;;;;;;;;;;;20.70;48.80;;;19.96;49.06;101493.88;12242033;19;19911;-86
2023/08/12 03:29:18;;;;;;;;;;;20.70;48.90;;;19.88;48.95;101482.09;12243843;19;20597;-86
2023/08/12 03:33:21;;;;;;;;;;;20.70;48.90;;;19.89;49.01;101482.94;12243309;19;19919;-87
2023/08/12 03:37:23;;;;;;;;;;;20.70;48.90;;;19.92;49.10;101497.75;12241548;19;19923;-86
2023/08/12 03:41:27;;;;;;;;;;;20.70;48.90;;;19.91;48.93;101490.78;12242970;19;20390;-86
2023/08/12 03:45:33;;;;;;;;;;;20.70;48.90;;;19.73;48.98;101459.50;12237700;19;19949;-86
2023/08/12 03:49:34;;;;;;;;;;;20.70;48.90;;;19.76;48.73;101455.75;12242417;19;20348;-86
2023/08/12 03:53:37;;;;;;;;;;;20.70;48.90;;;19.83;48.90;101473.69;12243292;19;19919;-86
2023/08/12 03:57:38;;;;;;;;;;;20.70;49.20;;;19.83;49.27;101471.03;12241405;19;19929;-86
2023/08/12 04:01:41;;;;;;;;;;;20.70;48.90;;;19.82;49.34;101464.06;12249227;19;19933;-86
2023/08/12 04:05:52;;;;;;;;;;;20.60;49.00;;;19.71;49.24;101442.03;12253159;19;19914;-86
2023/08/12 04:09:54;;;;;;;;;;;20.60;48.90;;;19.78;48.92;101457.31;12254665;19;19919;-86
2023/08/12 04:13:56;;;;;;;;;;;20.60;48.90;;;19.67;49.40;101437.00;12252310;19;19929;-86
2023/08/12 04:17:58;;;;;;;;;;;20.60;49.10;;;19.82;49.00;101455.25;12250879;19;20242;-87
2023/08/12 04:22:00;;;;;;;;;;;20.60;49.00;;;19.72;49.44;101444.56;12253351;19;19954;-87
2023/08/12 04:26:01;;;;;;;;;;;20.60;49.00;;;19.69;49.28;101438.69;12248209;19;19923;-87
2023/08/12 04:30:04;;;;;;;;;;;20.60;49.00;;;19.75;49.31;101451.44;12251976;19;19944;-86
2023/08/12 04:34:06;;;;;;;;;;;20.60;49.00;;;19.72;49.41;101439.28;12252196;19;19919;-86
2023/08/12 04:38:08;;;;;;;;;;;20.60;49.20;;;19.72;49.61;101439.28;12248638;19;19974;-87
2023/08/12 04:42:11;;;;;;;;;;;20.60;49.40;;;19.76;49.39;101448.63;12252672;19;19919;-87
2023/08/12 04:46:13;;;;;;;;;;;20.50;49.30;;;19.71;49.43;101437.56;12248728;19;20347;-86
2023/08/12 04:50:15;;;;;;;;;;;20.60;49.30;;;19.72;49.24;101444.56;12249484;19;19923;-87
2023/08/12 04:54:18;;;;;;;;;;;20.60;49.30;;;19.50;49.55;101396.94;12251192;19;20398;-86
2023/08/12 04:58:20;;;;;;;;;;;20.60;49.40;;;19.69;49.73;101434.22;12247888;19;19930;-87
2023/08/12 05:02:22;;;;;;;;;;;20.60;49.40;;;19.71;49.52;101437.56;12252108;19;19911;-86
2023/08/12 05:06:24;;;;;;;;;;;20.60;49.50;;;19.65;49.40;101416.84;12249206;19;19944;-87
2023/08/12 05:10:26;;;;;;;;;;;20.70;49.50;;;19.85;49.83;101439.94;12250076;19;19923;-86
2023/08/12 05:14:27;;;;;;;;;;;20.70;49.80;;;19.63;49.83;101392.28;12248518;19;19935;-86
2023/08/12 05:18:29;;;;;;;;;;;20.70;49.60;;;19.97;49.71;101453.97;12247420;19;19911;-86
2023/08/12 05:22:31;;;;;;;;;;;20.80;49.70;;;19.95;49.60;101432.03;12250065;19;19918;-87
2023/08/12 05:26:33;;;;;;;;;;;20.80;49.70;;;19.81;49.78;101401.41;12246917;19;19923;-86
2023/08/12 05:30:35;;;;;;;;;;;20.90;49.70;;;20.11;49.77;101447.50;12247509;19;19922;-86
2023/08/12 05:34:37;;;;;;;;;;;20.90;49.70;;;20.04;49.74;101411.91;12246393;19;20332;-87
2023/08/12 05:38:38;;;;;;;;;;;21.00;49.80;;;20.22;49.83;101430.69;12246478;19;19914;-86
2023/08/12 05:42:40;;;;;;;;;;;21.10;49.90;;;20.03;49.89;101396.94;12248136;19;19922;-86
2023/08/12 05:46:41;;;;;;;;;;;21.20;49.80;;;20.39;49.94;101445.16;12248737;19;19948;-86
2023/08/12 05:50:43;;;;;;;;;;;21.30;50.00;;;20.40;50.08;101423.00;12250700;19;19927;-87
2023/08/12 05:54:45;;;;;;;;;;;21.30;50.00;;;20.20;50.37;101369.84;12248254;19;19927;-86
2023/08/12 05:58:46;;;;;;;;;;;21.40;50.00;;;20.57;50.40;101405.66;12245063;19;19951;-86
2023/08/12 06:02:47;;;;;;;;;;;21.60;50.10;;;20.50;50.17;101376.13;12242637;19;19923;-86
2023/08/12 06:06:49;;;;;;;;;;;21.70;50.40;;;20.87;50.39;101410.09;12247219;19;20056;-86
2023/08/12 06:10:50;;;;;;;;;;;21.90;50.70;;;21.00;50.13;101394.75;12245124;19;19926;-87
2023/08/12 06:14:52;;;;;;;;;;;22.10;50.70;;;21.32;50.28;101421.09;12244734;19;19944;-87
2023/08/12 06:18:53;;;;;;;;;;;22.30;50.80;;;21.51;50.17;101422.97;12247698;19;19915;-86
2023/08/12 06:22:55;;;;;;;;;;;22.40;50.50;;;21.52;50.23;101399.88;12245449;19;20348;-86
2023/08/12 06:26:56;;;;;;;;;;;22.60;50.30;;;21.67;50.33;101409.13;12246485;19;19914;-87
2023/08/12 06:30:58;;;;;;;;;;;22.80;50.60;;;21.78;50.30;101410.81;12246452;19;19950;-87
2023/08/12 06:35:00;;;;;;;;;;;22.90;50.30;;;21.93;50.37;101406.75;12247663;19;19974;-86
2023/08/12 06:39:01;;;;;;;;;;;23.00;50.30;;;22.04;50.65;101419.88;12246656;19;19925;-86
2023/08/12 06:43:03;;;;;;;;;;;23.10;50.40;;;22.01;50.40;101395.41;12246170;19;19974;-86
2023/08/12 06:47:04;;;;;;;;;;;23.20;50.30;;;22.21;50.59;101407.69;12245704;19;20395;-85
2023/08/12 06:51:10;;;;;;;;;;;23.30;50.20;;;22.26;50.44;101404.59;12248092;19;19926;-86
2023/08/12 06:55:11;;;;;;;;;;;23.40;50.40;;;22.41;50.68;101403.13;12246290;19;19923;-88
2023/08/12 06:59:13;;;;;;;;;;;23.50;50.30;;;22.54;50.44;101387.69;12246962;19;19951;-85
2023/08/12 07:03:14;;;;;;;;;;;23.50;50.80;;;22.69;50.66;101390.72;12245367;19;19910;-87
2023/08/12 07:07:15;;;;;;;;;;;23.70;50.20;;;22.84;50.40;101396.38;12242782;19;20354;-86
2023/08/12 07:11:17;;;;;;;;;;;23.90;50.30;;;22.93;50.61;101387.50;12246078;19;19922;-87
2023/08/12 07:15:18;;;;;;;;;;;24.00;50.50;;;23.02;50.32;101384.97;12238643;19;19990;-87
2023/08/12 07:19:20;;;;;;;;;;;24.10;50.50;;;23.22;50.56;101394.47;12243396;19;19944;-86
2023/08/12 07:23:21;;;;;;;;;;;24.30;50.40;;;23.14;50.15;101359.75;12244253;19;20383;-87
2023/08/12 07:27:23;;;;;;;;;;;24.40;50.00;;;23.42;50.42;101393.38;12242423;19;19931;-86
2023/08/12 07:31:24;;;;;;;;;;;24.50;50.20;;;23.60;50.42;101404.03;12237453;19;19919;-87
2023/08/12 07:35:26;;;;;;;;;;;24.60;49.80;;;23.66;50.28;101397.25;12245844;19;19915;-87
2023/08/12 07:39:27;;;;;;;;;;;24.70;49.70;;;23.77;50.38;101393.53;12257013;19;19923;-86
2023/08/12 07:43:29;;;;;;;;;;;24.80;49.80;;;23.85;50.09;101399.75;12251553;19;19919;-87
2023/08/12 07:47:30;;;;;;;;;;;24.90;49.90;;;23.98;50.55;101393.16;12253094;19;19923;-88
2023/08/12 07:51:31;;;;;;;;;;;25.00;49.70;;;24.05;50.28;101380.88;12255664;19;19913;-86
2023/08/12 07:55:34;;;;;;;;;;;25.10;50.00;;;24.23;50.63;101384.34;12254412;19;19927;-83
2023/08/12 07:59:35;;;;;;;;;;;25.30;50.00;;;24.14;50.28;101347.06;12246410;19;20469;-82
2023/08/12 08:03:37;;;;;;;;;;;25.40;49.80;;;24.53;50.34;101392.03;12250301;19;19934;-83
2023/08/12 08:07:38;;;;;;;;;;;25.60;49.80;;;24.40;50.41;101347.06;12249114;19;19911;-82
2023/08/12 08:11:40;;;;;;;;;;;25.70;49.70;;;24.77;50.49;101378.78;12251031;19;19923;-83
2023/08/12 08:15:41;;;;;;;;;;;25.90;49.60;;;24.88;50.11;101380.31;12242068;19;19918;-83
2023/08/12 08:19:43;;;;;;;;;;;25.90;49.50;;;25.02;50.25;101376.19;12251077;19;20359;-82
2023/08/12 08:23:44;;;;;;;;;;;26.10;49.60;;;25.09;50.60;101356.66;12252084;19;19927;-83
2023/08/12 08:27:45;;;;;;;;;;;26.20;49.70;;;25.28;49.94;101368.09;12248224;19;19923;-83
2023/08/12 08:31:47;;;;;;;;;;;26.40;49.60;;;25.52;50.47;101368.09;12252924;19;19982;-83
2023/08/12 08:35:49;;;;;;;;;;;26.60;49.40;;;25.71;49.94;101374.94;12246651;19;19925;-83
2023/08/12 08:39:50;;;;;;;;;;;26.80;49.20;;;25.82;49.85;101361.22;12253600;19;20245;-82
2023/08/12 08:43:52;;;;;;;;;;;26.90;49.30;;;25.98;50.13;101373.78;12248655;19;19915;-83
2023/08/12 08:47:55;;;;;;;;;;;27.00;49.20;;;26.03;49.76;101371.44;12248914;19;19954;-84
2023/08/12 08:51:58;;;;;;;;;;;27.20;49.20;;;26.10;49.73;101370.75;12243396;19;19922;-84
2023/08/12 08:56:00;;;;;;;;;;;27.20;48.90;;;26.20;49.79;101382.09;12248569;19;19974;-82
2023/08/12 09:00:01;;;;;;;;;;;27.30;49.00;;;26.12;49.59;101360.72;12250054;19;19944;-83
2023/08/12 09:04:03;;;;;;;;;;;27.30;49.10;;;26.17;49.86;101367.22;12249587;19;20277;-83
2023/08/12 09:08:10;;;;;;;;;;;27.40;49.00;;;26.25;49.83;101377.91;12249288;19;20393;-82
2023/08/12 09:12:13;;;;;;;;;;;27.30;48.80;;;26.16;49.82;101362.03;12249890;19;19926;-85
2023/08/12 09:16:15;;;;;;;;;;;27.30;48.90;;;26.05;50.00;101342.63;12247498;19;19922;-83
2023/08/12 09:20:17;;;;;;;;;;;27.40;49.10;;;26.33;49.92;101382.41;12250360;19;19978;-83
2023/08/12 09:24:27;;;;;;;;;;;27.50;49.30;;;26.33;49.93;101376.19;12248922;19;19926;-82
2023/08/12 09:28:29;;;;;;;;;;;27.40;49.20;;;26.36;49.82;101381.22;12242005;19;20326;-83
2023/08/12 09:32:30;;;;;;;;;;;27.40;49.20;;;26.41;49.51;101368.13;12248692;19;19914;-82
2023/08/12 09:36:33;;;;;;;;;;;27.40;49.20;;;26.52;49.76;101364.25;12241758;19;19919;-84
2023/08/12 09:40:35;;;;;;;;;;;27.50;49.30;;;26.61;49.98;101360.56;12246896;19;19940;-82
2023/08/12 09:44:37;;;;;;;;;;;27.60;49.60;;;26.68;49.52;101348.13;12244454;19;19926;-83
2023/08/12 09:48:39;;;;;;;;;;;27.70;49.50;;;26.74;49.91;101325.16;12246065;19;19911;-83
2023/08/12 09:52:41;;;;;;;;;;;27.80;49.70;;;27.04;49.51;101348.41;12242033;19;19956;-83
2023/08/12 09:56:46;;;;;;;;;;;28.00;49.60;;;27.00;49.72;101309.56;12244459;19;19930;-83
2023/08/12 10:00:48;;;;;;;;;;;28.20;49.60;;;27.32;49.71;101326.47;12246088;19;20270;-83
2023/08/12 10:04:53;;;;;;;;;;;28.30;49.30;;;27.54;49.91;101352.44;12243293;19;19938;-84
2023/08/12 10:08:56;;;;;;;;;;;28.50;49.40;;;27.67;49.63;101329.50;12246164;19;19986;-83
2023/08/12 10:12:58;;;;;;;;;;;28.60;48.80;;;27.78;49.55;101329.06;12244182;19;20265;-83
2023/08/12 10:17:00;;;;;;;;;;;28.80;48.90;;;27.96;49.54;101336.81;12251144;19;20288;-85
2023/08/12 10:21:03;;;;;;;;;;;29.00;48.30;;;28.12;49.61;101327.75;12249541;19;19961;-83
2023/08/12 10:25:07;;;;;;;;;;;29.10;49.00;;;28.18;49.42;101314.38;12246708;19;19955;-86
2023/08/12 10:29:09;;;;;;;;;;;29.20;49.00;;;28.39;49.67;101321.69;12242282;19;19958;-83
2023/08/12 10:33:11;;;;;;;;;;;29.40;48.90;;;28.50;49.10;101323.09;12241680;19;19943;-82
2023/08/12 10:37:14;;;;;;;;;;;29.50;48.90;;;28.58;48.89;101317.59;12242713;19;19986;-82
2023/08/12 10:41:21;;;;;;;;;;;29.50;48.60;;;28.65;49.17;101317.66;12240571;19;19935;-82
2023/08/12 10:45:22;;;;;;;;;;;29.60;47.50;;;28.67;49.00;101319.16;12243149;19;20349;-82
2023/08/12 10:49:23;;;;;;;;;;;29.70;48.50;;;28.73;48.94;101297.91;12241005;19;19935;-83
2023/08/12 10:53:31;;;;;;;;;;;29.70;48.20;;;28.78;48.98;101287.41;12244716;19;20379;-83
2023/08/12 10:57:38;;;;;;;;;;;29.80;47.90;;;28.83;49.19;101275.06;12237729;19;19927;-81
2023/08/12 11:01:39;;;;;;;;;;;29.80;48.30;;;28.88;48.88;101290.63;12243185;19;19927;-82
2023/08/12 11:05:41;;;;;;;;;;;29.80;48.40;;;28.68;48.94;101250.94;12242640;19;19914;-84
2023/08/12 11:09:45;;;;;;;;;;;29.80;48.20;;;28.97;48.91;101300.22;12253472;19;19919;-85
2023/08/12 11:14:15;;;;;;;;;;;29.90;48.50;;;29.02;48.70;101300.50;12253212;19;19974;-83
2023/08/12 11:18:18;;;;;;;;;;;30.00;48.20;;;29.06;48.69;101307.19;12257082;19;19923;-82
2023/08/12 11:22:20;;;;;;;;;;;30.00;48.50;;;29.13;48.48;101309.94;12261091;19;19923;-83
2023/08/12 11:26:24;;;;;;;;;;;30.00;47.80;;;29.07;48.33;101290.03;12260749;19;19939;-85
2023/08/12 11:30:26;;;;;;;;;;;30.10;48.30;;;28.96;48.72;101263.63;12260148;19;19940;-83
2023/08/12 11:34:28;;;;;;;;;;;30.00;47.80;;;29.11;48.39;101285.94;12238936;19;19926;-82
2023/08/12 11:38:29;;;;;;;;;;;30.10;48.20;;;29.04;48.31;101290.41;12232559;19;20339;-82
2023/08/12 11:42:31;;;;;;;;;;;30.00;48.30;;;29.11;48.43;101293.16;12238656;19;19918;-82
2023/08/12 11:46:33;;;;;;;;;;;30.00;48.60;;;29.11;48.42;101295.84;12237567;19;19918;-82
2023/08/12 11:50:34;;;;;;;;;;;30.00;48.80;;;29.16;48.36;101287.19;12237558;19;19926;-81
2023/08/12 11:54:36;;;;;;;;;;;30.00;48.90;;;29.16;48.39;101284.50;12239637;19;20355;-82
2023/08/12 11:58:37;;;;;;;;;;;30.00;48.80;;;29.18;48.31;101287.84;12231999;19;19911;-83
2023/08/12 12:02:50;;;;;;;;;;;30.00;48.80;;;29.15;48.17;101294.44;12240332;19;19922;-82
2023/08/12 12:07:02;;;;;;;;;;;29.90;48.70;;;29.00;48.19;101277.50;12208324;19;19922;-83
2023/08/12 12:11:07;;;;;;;;;;;30.00;48.80;;;29.09;48.41;101305.97;12233510;19;19930;-81
2023/08/12 12:15:08;;;;;;;;;;;29.90;48.80;;;29.05;48.43;101294.75;12230382;19;19922;-81
2023/08/12 12:19:23;;;;;;;;;;;29.80;49.00;;;28.93;48.23;101271.25;12232649;19;19954;-82
2023/08/12 12:23:28;;;;;;;;;;;29.80;48.90;;;28.95;48.25;101278.09;12239981;19;19934;-81
2023/08/12 12:27:30;;;;;;;;;;;29.80;48.90;;;28.92;48.38;101278.44;12246651;19;19926;-81
2023/08/12 12:31:34;;;;;;;;;;;29.70;49.00;;;28.98;48.27;101306.47;12245391;19;19918;-81
2023/08/12 12:35:35;;;;;;;;;;;29.70;49.10;;;28.89;48.23;101281.53;12249880;19;19951;-81
2023/08/12 12:39:37;;;;;;;;;;;29.70;49.10;;;28.96;48.22;101290.50;12241176;19;19918;-81
2023/08/12 12:43:38;;;;;;;;;;;29.70;49.10;;;28.96;48.25;101279.75;12247412;19;19957;-82
2023/08/12 12:47:40;;;;;;;;;;;29.60;48.80;;;28.95;48.25;101286.16;12248349;19;19923;-83
2023/08/12 12:51:42;;;;;;;;;;;29.60;48.90;;;28.88;48.41;101269.13;12247491;19;19923;-82
2023/08/12 12:55:44;;;;;;;;;;;29.60;48.90;;;28.90;48.38;101262.53;12245262;19;19954;-83
2023/08/12 12:59:45;;;;;;;;;;;29.60;48.80;;;28.71;48.29;101198.66;12245000;19;19911;-81
2023/08/12 13:03:46;;;;;;;;;;;29.60;48.90;;;28.71;48.33;101181.69;12243320;19;19923;-84
2023/08/12 13:07:48;;;;;;;;;;;29.50;48.70;;;28.75;48.09;101212.53;12240502;19;19918;-82
2023/08/12 13:11:50;;;;;;;;;;;29.50;48.70;;;28.71;48.32;101205.91;12242150;19;19922;-82
2023/08/12 13:15:52;;;;;;;;;;;29.50;48.70;;;28.67;48.14;101200.06;12246533;19;19907;-82
2023/08/12 13:19:53;;;;;;;;;;;29.40;48.80;;;28.67;48.09;101194.69;12241663;19;19918;-82
2023/08/12 13:23:57;;;;;;;;;;;29.30;48.90;;;28.70;48.39;101196.97;12237487;19;19923;-81
2023/08/12 13:27:59;;;;;;;;;;;29.30;49.20;;;28.65;47.97;101178.75;12242693;19;19934;-82
2023/08/12 13:32:01;;;;;;;;;;;29.40;48.80;;;28.77;48.16;101189.81;12246492;19;19929;-82
2023/08/12 13:36:02;;;;;;;;;;;29.40;48.80;;;28.75;48.16;101166.84;12245008;19;19918;-85
2023/08/12 13:40:05;;;;;;;;;;;29.50;49.30;;;28.77;48.32;101162.09;12242611;19;20338;-85
2023/08/12 13:44:06;;;;;;;;;;;29.50;48.20;;;28.96;48.27;101172.19;12244092;19;19915;-85
2023/08/12 13:48:07;;;;;;;;;;;29.40;48.30;;;28.95;48.04;101159.78;12241406;19;19922;-85
2023/08/12 13:52:09;;;;;;;;;;;29.70;48.50;;;29.01;48.25;101152.78;12243069;19;20004;-85
2023/08/12 13:56:11;;;;;;;;;;;29.70;48.50;;;29.08;48.04;101154.53;12240590;19;19996;-85
2023/08/12 14:00:14;;;;;;;;;;;29.80;48.60;;;29.11;48.10;101158.66;12244345;19;19919;-85
2023/08/12 14:04:18;;;;;;;;;;;29.80;48.50;;;29.17;47.99;101140.94;12246094;19;20684;-85
2023/08/12 14:08:19;;;;;;;;;;;29.90;48.20;;;29.16;48.32;101123.09;12243987;19;19918;-86
2023/08/12 14:12:20;;;;;;;;;;;30.00;48.10;;;29.31;48.34;101139.97;12244889;19;19907;-85
2023/08/12 14:16:22;;;;;;;;;;;30.00;47.80;;;29.42;48.04;101139.41;12244627;19;19917;-85
2023/08/12 14:20:24;;;;;;;;;;;30.10;47.90;;;29.53;47.91;101124.56;12240210;19;20259;-85
2023/08/12 14:24:26;;;;;;;;;;;30.20;47.80;;;29.47;47.95;101091.19;12241409;19;19974;-85
2023/08/12 14:28:27;;;;;;;;;;;30.40;48.00;;;29.76;48.35;101121.59;12240626;19;19933;-85
2023/08/12 14:32:29;;;;;;;;;;;30.50;47.80;;;29.73;47.82;101089.66;12240854;19;19926;-85
2023/08/12 14:36:31;;;;;;;;;;;30.60;45.40;;;29.87;47.96;101094.06;12239939;19;19936;-85
2023/08/12 14:40:34;;;;;;;;;;;30.80;44.50;;;30.18;47.42;101125.00;12239948;19;19915;-85
2023/08/12 14:49:16;;;;;;;;;;;31.00;47.10;;;30.14;47.49;101094.97;12237590;19;19919;-85
2023/08/12 14:53:18;;;;;;;;;;;31.00;47.40;;;30.32;47.61;101107.84;12238448;19;20353;-85
2023/08/12 14:57:19;;;;;;;;;;;31.10;47.20;;;30.35;47.54;101110.16;12239295;19;19927;-84
2023/08/12 15:01:21;;;;;;;;;;;31.10;46.50;;;30.36;47.12;101103.72;12242724;19;20261;-85
2023/08/12 15:05:23;;;;;;;;;;;31.20;47.20;;;30.41;47.33;101106.63;12239547;19;19923;-85
2023/08/12 15:09:24;;;;;;;;;;;31.20;47.00;;;30.29;47.54;101075.91;12245068;19;20017;-85
2023/08/12 15:13:25;;;;;;;;;;;31.20;46.20;;;30.39;47.43;101073.66;12243609;19;19926;-85
2023/08/12 15:17:27;;;;;;;;;;;31.30;46.60;;;30.51;47.18;101087.31;12239110;19;19919;-86
2023/08/12 15:21:28;;;;;;;;;;;31.30;47.40;;;30.54;47.31;101072.59;12242420;19;19918;-85
2023/08/12 15:25:31;;;;;;;;;;;31.30;47.50;;;30.56;47.08;101060.56;12241253;19;19940;-85
2023/08/12 15:29:32;;;;;;;;;;;31.40;46.90;;;30.68;47.06;101071.59;12245358;19;19915;-86
2023/08/12 15:33:33;;;;;;;;;;;31.50;47.30;;;30.60;47.32;101047.53;12245476;19;19926;-85
2023/08/12 15:37:35;;;;;;;;;;;31.50;47.50;;;30.78;46.84;101063.88;12242042;19;20586;-86
2023/08/12 15:41:41;;;;;;;;;;;31.60;47.30;;;30.52;46.88;101008.13;12244681;19;20346;-86
2023/08/12 15:45:43;;;;;;;;;;;31.60;47.30;;;30.89;46.94;101057.03;12241787;19;19935;-85
2023/08/12 15:49:44;;;;;;;;;;;31.70;46.90;;;30.86;46.86;101043.97;12238977;19;19925;-86
2023/08/12 15:53:45;;;;;;;;;;;31.70;47.20;;;30.89;46.95;101045.44;12239889;19;20677;-86
2023/08/12 15:57:47;;;;;;;;;;;31.70;46.90;;;30.94;47.09;101051.00;12241615;19;19911;-86
2023/08/12 16:01:49;;;;;;;;;;;31.70;47.00;;;30.93;46.71;101050.19;12251365;19;19922;-87
2023/08/12 16:05:50;;;;;;;;;;;31.70;45.60;;;30.85;46.71;101036.94;12257133;19;19918;-86
2023/08/12 16:09:52;;;;;;;;;;;31.70;47.00;;;30.92;46.89;101043.16;12258280;19;20002;-86
2023/08/12 16:13:53;;;;;;;;;;;31.70;47.00;;;30.95;46.86;101052.69;12256255;19;19948;-86
2023/08/12 16:17:55;;;;;;;;;;;31.70;47.20;;;30.95;46.90;101041.91;12251570;19;19935;-86
2023/08/12 16:21:56;;;;;;;;;;;31.70;47.00;;;30.79;46.61;101006.22;12256673;19;19930;-86
2023/08/12 16:25:59;;;;;;;;;;;31.70;46.20;;;30.93;46.46;101038.59;12248194;19;19925;-86
2023/08/12 16:30:00;;;;;;;;;;;31.60;46.70;;;30.94;46.77;101035.66;12248430;19;19946;-87
2023/08/12 16:34:02;;;;;;;;;;;31.60;46.60;;;30.88;46.57;101019.50;12248754;19;19923;-88
2023/08/12 16:38:04;;;;;;;;;;;31.60;46.60;;;30.90;46.72;101030.91;12242939;19;19951;-86
2023/08/12 16:42:05;;;;;;;;;;;31.60;47.00;;;30.89;46.68;101015.75;12254407;19;19922;-86
2023/08/12 16:46:07;;;;;;;;;;;31.60;46.80;;;30.90;46.39;101015.56;12246952;19;19929;-86
2023/08/12 16:50:08;;;;;;;;;;;31.60;47.20;;;30.88;46.29;101014.09;12244677;19;19935;-86
2023/08/12 16:54:10;;;;;;;;;;;31.60;46.70;;;30.86;46.32;101011.59;12249499;19;20273;-86
2023/08/12 16:58:11;;;;;;;;;;;31.60;46.50;;;30.81;46.26;100996.09;12244150;19;19918;-86
2023/08/12 17:02:13;;;;;;;;;;;31.50;46.90;;;30.78;46.45;100995.63;12251496;19;19923;-86
2023/08/12 17:06:14;;;;;;;;;;;31.50;47.20;;;30.68;46.45;100985.31;12249010;19;19915;-86
2023/08/12 17:10:16;;;;;;;;;;;31.40;46.80;;;30.71;46.26;101001.06;12248493;19;19919;-86
2023/08/12 17:14:17;;;;;;;;;;;31.40;47.40;;;30.67;46.15;101007.88;12256065;19;19939;-86
2023/08/12 17:18:18;;;;;;;;;;;31.40;47.30;;;30.68;46.45;101020.34;12244886;19;19919;-86
2023/08/12 17:22:20;;;;;;;;;;;31.30;47.20;;;30.61;46.23;101024.91;12249287;19;19953;-86
2023/08/12 17:26:21;;;;;;;;;;;31.30;47.40;;;30.63;46.15;101025.53;12244833;19;19911;-86
2023/08/12 17:30:23;;;;;;;;;;;31.20;47.40;;;30.60;46.35;101026.78;12248518;19;19925;-86
2023/08/12 17:34:24;;;;;;;;;;;31.20;47.20;;;30.37;46.22;100972.50;12248436;19;19918;-86
2023/08/12 17:38:26;;;;;;;;;;;31.10;47.30;;;30.40;46.23;100999.00;12240111;19;19915;-86
2023/08/12 17:42:27;;;;;;;;;;;31.10;47.30;;;30.38;46.37;101007.31;12244865;19;20589;-87
2023/08/12 17:46:29;;;;;;;;;;;31.00;47.30;;;30.27;46.44;101007.09;12249078;19;20305;-86
2023/08/12 17:50:30;;;;;;;;;;;30.90;47.50;;;30.26;46.43;101011.66;12251116;19;19922;-86
2023/08/12 17:54:32;;;;;;;;;;;30.90;47.60;;;30.31;46.45;101014.56;12249846;19;19926;-86
2023/08/12 17:58:35;;;;;;;;;;;30.90;47.70;;;30.27;46.20;101012.50;12247589;19;19923;-86
2023/08/12 18:02:36;;;;;;;;;;;30.90;47.90;;;29.90;46.25;100964.41;12242090;19;19935;-86
2023/08/12 18:06:38;;;;;;;;;;;30.80;47.80;;;30.11;46.41;100997.53;12247432;19;19915;-86
2023/08/12 18:10:39;;;;;;;;;;;30.80;47.90;;;30.08;46.41;101003.34;12252789;19;19929;-87
2023/08/12 18:14:41;;;;;;;;;;;30.70;47.90;;;30.11;46.49;101014.56;12249172;19;19929;-86